createdAt,value
2022-10-06T00:00:10.926Z,0.57
2022-10-06T00:02:38.508Z,0.60
2022-10-06T00:05:06.025Z,0.60
2022-10-06T00:07:33.559Z,0.30
2022-10-06T00:10:01.108Z,0.50
2022-10-06T00:12:29.408Z,0.60
2022-10-06T00:14:56.992Z,0.67
2022-10-06T00:17:24.518Z,0.60
2022-10-06T00:19:52.040Z,0.50
2022-10-06T00:22:19.584Z,0.70
2022-10-06T00:24:47.120Z,1.17
2022-10-06T00:27:14.645Z,1.05
2022-10-06T00:29:42.977Z,0.73
2022-10-06T00:32:10.501Z,0.80
2022-10-06T00:34:38.077Z,0.70
2022-10-06T00:37:06.380Z,1.10
2022-10-06T00:39:33.914Z,0.67
2022-10-06T00:42:01.449Z,0.70
2022-10-06T00:44:29.014Z,0.70
2022-10-06T00:46:56.537Z,0.80
2022-10-06T00:49:24.849Z,0.40
2022-10-06T00:51:52.414Z,0.60
2022-10-06T00:54:19.939Z,0.33
2022-10-06T00:56:48.232Z,0.60
2022-10-06T00:59:15.825Z,1.10
2022-10-06T01:01:43.405Z,0.40
2022-10-06T01:04:10.908Z,0.50
2022-10-06T01:06:47.616Z,0.50
2022-10-06T01:09:15.152Z,0.60
2022-10-06T01:11:42.677Z,0.60
2022-10-06T01:14:11.008Z,0.77
2022-10-06T01:16:38.554Z,0.40
2022-10-06T01:19:06.097Z,0.70
2022-10-06T01:21:39.687Z,0.50
2022-10-06T01:24:07.213Z,0.60
2022-10-06T01:26:34.747Z,0.80
2022-10-06T01:29:02.293Z,1.00
2022-10-06T01:31:29.861Z,0.53
2022-10-06T01:33:57.401Z,0.60
2022-10-06T01:36:25.684Z,0.63
2022-10-06T01:38:53.220Z,0.67
2022-10-06T01:41:21.522Z,0.60
2022-10-06T01:43:49.137Z,0.60
2022-10-06T01:46:16.678Z,1.10
2022-10-06T01:48:44.178Z,0.50
2022-10-06T01:51:14.850Z,0.50
2022-10-06T01:53:42.385Z,0.70
2022-10-06T01:56:09.920Z,0.80
2022-10-06T01:58:37.515Z,0.50
2022-10-06T02:01:05.787Z,1.10
2022-10-06T02:03:36.078Z,0.80
2022-10-06T02:06:03.722Z,0.67
2022-10-06T02:08:31.556Z,0.70
2022-10-06T02:10:59.470Z,0.80
2022-10-06T02:13:27.045Z,1.03
2022-10-06T02:15:57.742Z,0.50
2022-10-06T02:18:25.449Z,0.80
2022-10-06T02:20:52.770Z,0.60
2022-10-06T02:23:21.085Z,0.80
2022-10-06T02:25:48.702Z,0.70
2022-10-06T02:28:16.316Z,0.90
2022-10-06T02:30:43.766Z,0.90
2022-10-06T02:33:11.291Z,1.15
2022-10-06T02:35:38.844Z,1.10
2022-10-06T02:38:07.148Z,0.70
2022-10-06T02:40:34.674Z,0.80
2022-10-06T02:43:03.005Z,0.93
2022-10-06T02:45:30.566Z,1.00
2022-10-06T02:47:58.084Z,1.10
2022-10-06T02:50:26.387Z,0.83
2022-10-06T02:52:53.922Z,0.77
2022-10-06T02:55:21.466Z,0.90
2022-10-06T02:57:49.780Z,0.60
2022-10-06T03:00:17.293Z,0.80
2022-10-06T03:02:45.812Z,1.07
2022-10-06T03:05:13.182Z,0.90
2022-10-06T03:07:40.716Z,1.43
2022-10-06T03:10:08.399Z,1.13
2022-10-06T03:12:35.963Z,1.43
2022-10-06T03:15:03.477Z,1.00
2022-10-06T03:17:31.773Z,0.90
2022-10-06T03:19:59.349Z,1.17
2022-10-06T03:22:26.878Z,1.07
2022-10-06T03:24:55.171Z,1.10
2022-10-06T03:27:22.767Z,1.10
2022-10-06T03:29:50.291Z,1.07
2022-10-06T03:32:17.825Z,1.55
2022-10-06T03:34:46.188Z,1.60
2022-10-06T03:37:13.728Z,1.40
2022-10-06T03:39:41.286Z,1.23
2022-10-06T03:42:08.840Z,1.10
2022-10-06T03:44:36.378Z,0.93
2022-10-06T03:47:03.966Z,1.20
2022-10-06T03:49:31.491Z,1.03
2022-10-06T03:51:59.009Z,1.10
2022-10-06T03:54:27.312Z,0.87
2022-10-06T03:56:54.897Z,1.23
2022-10-06T03:59:22.427Z,1.00
2022-10-06T04:01:49.972Z,1.07
2022-10-06T04:04:17.510Z,0.93
2022-10-06T04:06:45.051Z,1.30
2022-10-06T04:09:15.245Z,1.00
2022-10-06T04:11:40.124Z,1.17
2022-10-06T04:14:07.669Z,0.90
2022-10-06T04:16:35.277Z,1.40
2022-10-06T04:19:03.595Z,1.50
2022-10-06T04:21:31.907Z,1.30
2022-10-06T04:23:59.452Z,0.90
2022-10-06T04:26:27.022Z,1.20
2022-10-06T04:28:54.541Z,1.00
2022-10-06T04:31:24.586Z,1.33
2022-10-06T04:33:54.655Z,1.10
2022-10-06T04:36:22.206Z,1.85
2022-10-06T04:38:52.686Z,1.87
2022-10-06T04:41:20.259Z,1.37
2022-10-06T04:43:47.785Z,1.00
2022-10-06T04:46:41.495Z,1.07
2022-10-06T04:48:43.692Z,1.33
2022-10-06T04:51:11.222Z,1.10
2022-10-06T04:53:38.761Z,1.10
2022-10-06T04:56:09.239Z,1.60
2022-10-06T04:58:36.764Z,1.20
2022-10-06T05:01:04.351Z,1.63
2022-10-06T05:03:31.892Z,1.00
2022-10-06T05:06:02.382Z,1.20
2022-10-06T05:08:31.033Z,1.17
2022-10-06T05:11:03.832Z,1.00
2022-10-06T05:13:31.366Z,1.10
2022-10-06T05:16:01.822Z,1.27
2022-10-06T05:18:29.610Z,1.70
2022-10-06T05:20:56.894Z,1.30
2022-10-06T05:23:24.420Z,1.40
2022-10-06T05:25:54.750Z,1.40
2022-10-06T05:28:22.354Z,1.53
2022-10-06T05:31:02.866Z,1.60
2022-10-06T05:33:30.411Z,1.70
2022-10-06T05:35:58.725Z,2.73
2022-10-06T05:38:26.677Z,2.43
2022-10-06T05:41:08.908Z,2.60
2022-10-06T05:43:36.462Z,3.20
2022-10-06T05:46:04.074Z,6.20
2022-10-06T05:48:32.634Z,5.63
2022-10-06T05:51:02.782Z,4.90
2022-10-06T05:53:30.312Z,4.80
2022-10-06T05:56:06.531Z,5.33
2022-10-06T05:58:34.616Z,3.37
2022-10-06T06:01:07.646Z,2.37
2022-10-06T06:03:35.171Z,2.23
2022-10-06T06:06:02.755Z,2.90
2022-10-06T06:08:30.669Z,2.57
2022-10-06T06:10:57.835Z,1.80
2022-10-06T06:13:25.404Z,1.70
2022-10-06T06:16:01.716Z,2.03
2022-10-06T06:18:30.271Z,2.13
2022-10-06T06:21:03.461Z,2.40
2022-10-06T06:23:34.009Z,2.70
2022-10-06T06:26:02.716Z,2.87
2022-10-06T06:28:29.577Z,2.30
2022-10-06T06:31:05.447Z,2.00
2022-10-06T06:33:33.748Z,2.53
2022-10-06T06:36:01.303Z,1.90
2022-10-06T06:38:29.142Z,2.30
2022-10-06T06:40:56.401Z,2.45
2022-10-06T06:43:23.926Z,1.93
2022-10-06T06:45:51.626Z,1.53
2022-10-06T06:48:19.035Z,2.07
2022-10-06T06:50:47.340Z,2.20
2022-10-06T06:53:16.192Z,1.73
2022-10-06T06:55:49.458Z,1.50
2022-10-06T06:58:16.992Z,1.83
2022-10-06T07:00:44.518Z,1.87
2022-10-06T07:03:12.870Z,2.03
2022-10-06T07:05:40.415Z,2.23
2022-10-06T07:08:10.853Z,3.12
2022-10-06T07:10:38.407Z,3.10
2022-10-06T07:13:05.953Z,2.47
2022-10-06T07:15:51.964Z,2.57
2022-10-06T07:18:37.285Z,2.93
2022-10-06T07:21:23.094Z,3.07
2022-10-06T07:24:08.824Z,3.53
2022-10-06T07:26:37.196Z,2.80
2022-10-06T07:29:04.722Z,2.87
2022-10-06T07:31:32.302Z,2.93
2022-10-06T07:34:02.784Z,2.57
2022-10-06T07:36:30.309Z,2.13
2022-10-06T07:38:58.602Z,2.30
2022-10-06T07:41:26.166Z,2.20
2022-10-06T07:43:56.575Z,2.70
2022-10-06T07:46:24.953Z,2.33
2022-10-06T07:48:52.463Z,2.10
2022-10-06T07:51:19.991Z,2.63
2022-10-06T07:53:47.532Z,2.27
2022-10-06T07:56:15.882Z,2.80
2022-10-06T07:58:43.429Z,2.97
2022-10-06T08:01:10.943Z,2.70
2022-10-06T08:03:38.518Z,2.90
2022-10-06T08:06:06.043Z,2.63
2022-10-06T08:08:34.336Z,3.10
2022-10-06T08:11:02.139Z,1.83
2022-10-06T08:13:29.464Z,2.13
2022-10-06T08:15:56.989Z,2.97
2022-10-06T08:18:44.961Z,1.93
2022-10-06T08:20:52.856Z,1.90
2022-10-06T08:23:20.381Z,1.80
2022-10-06T08:25:51.513Z,2.30
2022-10-06T08:28:19.098Z,2.03
2022-10-06T08:30:46.579Z,1.77
2022-10-06T08:33:14.163Z,1.77
2022-10-06T08:35:41.703Z,2.37
2022-10-06T08:38:09.232Z,2.33
2022-10-06T08:40:36.806Z,2.20
2022-10-06T08:43:04.342Z,2.00
2022-10-06T08:45:39.051Z,1.67
2022-10-06T08:48:19.132Z,1.80
2022-10-06T08:50:46.668Z,2.23
2022-10-06T08:53:45.090Z,2.10
2022-10-06T08:56:15.273Z,1.57
2022-10-06T08:58:52.301Z,2.47
2022-10-06T09:01:25.464Z,2.07
2022-10-06T09:03:55.605Z,2.67
2022-10-06T09:06:44.925Z,1.80
2022-10-06T09:09:34.043Z,2.37
2022-10-06T09:12:07.146Z,3.30
2022-10-06T09:14:40.119Z,2.70
2022-10-06T09:17:07.635Z,1.90
2022-10-06T09:19:50.737Z,1.83
2022-10-06T09:22:21.037Z,2.20
2022-10-06T09:24:51.330Z,1.87
2022-10-06T09:27:21.592Z,2.57
2022-10-06T09:29:49.128Z,2.17
2022-10-06T09:32:16.682Z,2.33
2022-10-06T09:34:47.298Z,1.83
2022-10-06T09:37:14.834Z,2.87
2022-10-06T09:39:42.408Z,2.07
2022-10-06T09:42:15.918Z,1.70
2022-10-06T09:44:58.448Z,1.70
2022-10-06T09:47:28.702Z,2.23
2022-10-06T09:50:23.086Z,1.80
2022-10-06T09:52:50.660Z,1.57
2022-10-06T09:55:18.213Z,1.97
2022-10-06T09:57:48.387Z,1.70
2022-10-06T10:00:30.858Z,1.93
2022-10-06T10:03:04.080Z,1.90
2022-10-06T10:05:31.583Z,1.87
2022-10-06T10:08:04.606Z,1.93
2022-10-06T10:10:32.902Z,1.60
2022-10-06T10:13:00.437Z,1.53
2022-10-06T10:15:28.791Z,2.53
2022-10-06T10:18:01.955Z,2.67
2022-10-06T10:20:50.784Z,1.50
2022-10-06T10:23:18.302Z,1.80
2022-10-06T10:25:48.889Z,1.67
2022-10-06T10:28:34.315Z,2.17
2022-10-06T10:31:19.905Z,1.57
2022-10-06T10:34:24.409Z,1.60
2022-10-06T10:36:59.963Z,1.43
2022-10-06T10:39:33.003Z,1.60
2022-10-06T10:42:00.653Z,2.33
2022-10-06T10:44:34.147Z,2.07
2022-10-06T10:47:01.744Z,2.03
2022-10-06T10:49:29.266Z,1.57
2022-10-06T10:52:15.744Z,2.10
2022-10-06T10:54:51.829Z,1.90
2022-10-06T10:57:19.391Z,1.63
2022-10-06T11:00:01.911Z,1.17
2022-10-06T11:02:29.474Z,1.00
2022-10-06T11:05:06.294Z,1.57
2022-10-06T11:07:39.856Z,2.20
2022-10-06T11:10:12.935Z,1.80
2022-10-06T11:12:46.228Z,2.10
2022-10-06T11:15:25.362Z,1.40
2022-10-06T11:17:52.950Z,1.57
2022-10-06T11:20:44.359Z,1.80
2022-10-06T11:23:29.921Z,1.50
2022-10-06T11:26:00.154Z,1.30
2022-10-06T11:28:39.564Z,1.60
2022-10-06T11:31:07.065Z,2.00
2022-10-06T11:33:36.995Z,1.50
2022-10-06T11:36:04.826Z,1.30
2022-10-06T11:38:32.370Z,1.50
2022-10-06T11:41:05.126Z,1.33
2022-10-06T11:43:49.642Z,1.30
2022-10-06T11:46:17.232Z,1.43
2022-10-06T11:48:44.722Z,1.50
2022-10-06T11:51:24.507Z,1.30
2022-10-06T11:53:52.040Z,1.07
2022-10-06T11:56:19.565Z,1.80
2022-10-06T11:58:56.906Z,1.63
2022-10-06T12:01:36.485Z,1.30
2022-10-06T12:04:09.975Z,1.67
2022-10-06T12:06:43.358Z,1.43
2022-10-06T12:09:26.225Z,1.40
2022-10-06T12:11:53.794Z,1.67
2022-10-06T12:16:32.348Z,1.10
2022-10-06T12:17:18.279Z,1.13
2022-10-06T12:19:24.782Z,1.67
2022-10-06T12:21:58.093Z,1.43
2022-10-06T12:25:02.888Z,1.53
2022-10-06T12:27:49.455Z,1.40
2022-10-06T12:30:22.395Z,1.27
2022-10-06T12:32:55.710Z,1.17
2022-10-06T12:35:38.566Z,1.20
2022-10-06T12:38:06.887Z,1.00
2022-10-06T12:40:49.232Z,2.20
2022-10-06T12:43:19.319Z,2.23
2022-10-06T12:46:05.602Z,1.53
2022-10-06T12:48:57.599Z,1.00
2022-10-06T12:51:37.554Z,1.07
2022-10-06T12:54:33.127Z,1.40
2022-10-06T12:57:18.623Z,0.90
2022-10-06T12:59:46.146Z,1.53
2022-10-06T13:02:22.360Z,1.92
2022-10-06T13:04:53.228Z,1.70
2022-10-06T13:07:20.814Z,1.13
2022-10-06T13:09:48.376Z,1.37
2022-10-06T13:12:30.874Z,1.00
2022-10-06T13:15:13.153Z,1.10
2022-10-06T13:17:59.296Z,1.57
2022-10-06T13:20:26.821Z,1.10
2022-10-06T13:23:00.524Z,1.40
2022-10-06T13:25:45.807Z,1.20
2022-10-06T13:28:25.379Z,1.23
2022-10-06T13:30:58.734Z,1.57
2022-10-06T13:33:26.034Z,1.10
2022-10-06T13:35:53.580Z,1.20
2022-10-06T13:38:21.144Z,1.43
2022-10-06T13:41:18.769Z,1.27
2022-10-06T13:43:49.139Z,1.70
2022-10-06T13:46:16.702Z,1.20
2022-10-06T13:48:50.303Z,1.77
2022-10-06T13:51:23.597Z,1.40
2022-10-06T13:53:51.152Z,1.73
2022-10-06T13:56:24.682Z,1.63
2022-10-06T13:58:52.235Z,1.57
2022-10-06T14:01:32.268Z,1.20
2022-10-06T14:04:15.044Z,1.83
2022-10-06T14:06:48.319Z,1.40
2022-10-06T14:09:15.844Z,1.83
2022-10-06T14:11:46.226Z,1.20
2022-10-06T14:14:14.666Z,1.50
2022-10-06T14:16:42.202Z,1.63
2022-10-06T14:19:09.783Z,1.50
2022-10-06T14:21:43.679Z,2.00
2022-10-06T14:24:18.041Z,1.60
2022-10-06T14:26:45.571Z,1.27
2022-10-06T14:29:16.188Z,0.97
2022-10-06T14:31:44.644Z,1.50
2022-10-06T14:34:14.814Z,1.17
2022-10-06T14:36:42.360Z,1.55
2022-10-06T14:39:09.941Z,1.33
2022-10-06T14:41:37.476Z,1.43
2022-10-06T14:44:08.063Z,1.37
2022-10-06T14:46:35.704Z,1.23
2022-10-06T14:49:06.766Z,1.75
2022-10-06T14:51:36.607Z,1.10
2022-10-06T14:54:01.865Z,1.20
2022-10-06T14:56:29.399Z,1.87
2022-10-06T14:58:56.939Z,1.40
2022-10-06T15:01:25.294Z,1.30
2022-10-06T15:03:52.936Z,1.13
2022-10-06T15:06:38.543Z,1.50
2022-10-06T15:09:06.066Z,1.10
2022-10-06T15:11:33.591Z,1.30
2022-10-06T15:14:01.166Z,1.40
2022-10-06T15:16:28.720Z,1.40
2022-10-06T15:18:56.244Z,1.20
2022-10-06T15:21:24.597Z,1.47
2022-10-06T15:23:58.383Z,1.70
2022-10-06T15:26:43.987Z,1.60
2022-10-06T15:29:11.524Z,1.53
2022-10-06T15:31:39.112Z,1.62
2022-10-06T15:34:06.633Z,1.30
2022-10-06T15:36:34.165Z,1.47
2022-10-06T15:39:01.710Z,1.70
2022-10-06T15:41:30.061Z,1.63
2022-10-06T15:44:00.374Z,1.97
2022-10-06T15:46:30.980Z,2.10
2022-10-06T15:49:01.220Z,1.47
2022-10-06T15:51:28.747Z,1.70
2022-10-06T15:53:56.331Z,1.50
2022-10-06T15:56:24.634Z,1.33
2022-10-06T15:58:52.158Z,1.53
2022-10-06T16:01:28.723Z,1.03
2022-10-06T16:03:56.986Z,1.57
2022-10-06T16:06:30.044Z,1.13
2022-10-06T16:08:58.397Z,2.03
2022-10-06T16:11:25.941Z,1.63
2022-10-06T16:13:53.477Z,1.67
2022-10-06T16:16:21.188Z,1.30
2022-10-06T16:18:48.624Z,1.60
2022-10-06T16:21:16.184Z,2.47
2022-10-06T16:23:43.742Z,2.07
2022-10-06T16:26:11.307Z,1.90
2022-10-06T16:28:38.884Z,2.00
2022-10-06T16:31:06.437Z,2.00
2022-10-06T16:33:33.922Z,1.67
2022-10-06T16:36:02.214Z,1.77
2022-10-06T16:38:29.810Z,1.57
2022-10-06T16:40:57.345Z,1.60
2022-10-06T16:43:30.626Z,1.30
2022-10-06T16:46:02.001Z,1.93
2022-10-06T16:48:31.579Z,1.50
2022-10-06T16:51:12.030Z,1.90
2022-10-06T16:53:45.637Z,1.23
2022-10-06T16:56:15.837Z,2.23
2022-10-06T16:58:44.180Z,1.93
2022-10-06T17:01:11.799Z,2.13
2022-10-06T17:03:39.330Z,2.00
2022-10-06T17:06:12.861Z,2.00
2022-10-06T17:08:40.428Z,2.10
2022-10-06T17:11:08.738Z,2.50
2022-10-06T17:13:36.271Z,1.70
2022-10-06T17:16:06.786Z,1.80
2022-10-06T17:18:34.254Z,1.87
2022-10-06T17:21:01.887Z,2.60
2022-10-06T17:23:30.180Z,2.10
2022-10-06T17:26:06.390Z,2.50
2022-10-06T17:28:33.951Z,2.80
2022-10-06T17:31:01.493Z,2.10
2022-10-06T17:33:29.032Z,3.40
2022-10-06T17:35:56.594Z,3.10
2022-10-06T17:38:24.120Z,2.13
2022-10-06T17:40:51.684Z,1.87
2022-10-06T17:43:19.229Z,2.17
2022-10-06T17:45:47.628Z,2.83
2022-10-06T17:48:15.134Z,3.27
2022-10-06T17:50:42.671Z,2.63
2022-10-06T17:53:10.224Z,4.37
2022-10-06T17:55:37.776Z,5.27
2022-10-06T17:58:05.320Z,6.77
2022-10-06T18:00:32.875Z,7.40
2022-10-06T18:03:00.459Z,4.93
2022-10-06T18:05:32.163Z,3.33
2022-10-06T18:07:55.569Z,2.70
2022-10-06T18:10:41.034Z,2.23
2022-10-06T18:13:08.558Z,2.10
2022-10-06T18:15:36.083Z,2.43
2022-10-06T18:18:03.656Z,2.20
2022-10-06T18:20:31.185Z,2.57
2022-10-06T18:22:58.718Z,3.33
2022-10-06T18:25:27.088Z,3.13
2022-10-06T18:27:54.583Z,3.00
2022-10-06T18:30:25.745Z,3.20
2022-10-06T18:37:45.378Z,3.33
2022-10-06T18:40:12.346Z,3.40
2022-10-06T18:42:40.660Z,2.90
2022-10-06T18:45:26.522Z,3.43
2022-10-06T18:48:11.834Z,2.30
2022-10-06T18:50:39.422Z,3.10
2022-10-06T18:53:06.942Z,3.93
2022-10-06T18:55:34.487Z,3.93
2022-10-06T18:58:02.061Z,2.70
2022-10-06T19:00:29.598Z,2.50
2022-10-06T19:02:57.122Z,3.80
2022-10-06T19:05:24.689Z,4.83
2022-10-06T19:07:53.002Z,4.97
2022-10-06T19:10:20.547Z,3.07
2022-10-06T19:12:48.165Z,3.03
2022-10-06T19:15:20.401Z,3.30
2022-10-06T19:17:44.391Z,2.73
2022-10-06T19:20:11.560Z,3.90
2022-10-06T19:22:39.102Z,5.50
2022-10-06T19:25:06.726Z,5.83
2022-10-06T19:27:34.290Z,5.00
2022-10-06T19:30:01.808Z,4.30
2022-10-06T19:32:29.351Z,4.33
2022-10-06T19:34:56.903Z,3.77
2022-10-06T19:37:24.443Z,3.97
2022-10-06T19:39:51.983Z,3.53
2022-10-06T19:42:37.715Z,3.57
2022-10-06T19:45:05.290Z,3.30
2022-10-06T19:47:32.792Z,3.17
2022-10-06T19:50:04.766Z,3.20
2022-10-06T19:52:27.901Z,3.73
2022-10-06T19:54:55.427Z,2.67
2022-10-06T19:57:23.759Z,3.10
2022-10-06T19:59:51.284Z,3.17
2022-10-06T20:02:18.838Z,3.00
2022-10-06T20:04:47.160Z,3.07
2022-10-06T20:07:14.698Z,4.27
2022-10-06T20:09:42.231Z,3.80
2022-10-06T20:12:10.581Z,4.00
2022-10-06T20:14:38.137Z,3.00
2022-10-06T20:17:05.775Z,2.90
2022-10-06T20:19:33.255Z,3.75
2022-10-06T20:22:00.791Z,3.58
2022-10-06T20:24:28.306Z,3.47
2022-10-06T20:26:56.639Z,3.30
2022-10-06T20:29:24.174Z,2.77
2022-10-06T20:31:51.756Z,3.65
2022-10-06T20:34:19.330Z,3.35
2022-10-06T20:36:49.532Z,2.90
2022-10-06T20:39:32.497Z,3.33
2022-10-06T20:42:00.779Z,4.00
2022-10-06T20:44:28.305Z,3.37
2022-10-06T20:46:55.890Z,3.57
2022-10-06T20:49:24.193Z,3.62
2022-10-06T20:51:51.735Z,3.73
2022-10-06T20:54:20.058Z,3.30
2022-10-06T20:56:50.571Z,3.43
2022-10-06T20:59:18.092Z,3.60
2022-10-06T21:01:46.487Z,3.40
2022-10-06T21:04:13.952Z,3.30
2022-10-06T21:06:41.483Z,3.10
2022-10-06T21:09:09.815Z,3.20
2022-10-06T21:11:37.362Z,3.03
2022-10-06T21:14:04.875Z,2.83
2022-10-06T21:16:33.207Z,3.10
2022-10-06T21:19:03.675Z,2.57
2022-10-06T21:21:31.988Z,3.20
2022-10-06T21:23:59.523Z,2.67
2022-10-06T21:26:27.806Z,2.53
2022-10-06T21:28:55.322Z,2.37
2022-10-06T21:31:22.926Z,2.97
2022-10-06T21:33:50.411Z,2.57
2022-10-06T21:36:17.945Z,3.42
2022-10-06T21:38:45.521Z,3.50
2022-10-06T21:41:31.052Z,3.50
2022-10-06T21:44:10.521Z,2.70
2022-10-06T21:46:46.562Z,2.90
2022-10-06T21:49:13.999Z,3.30
2022-10-06T21:51:41.554Z,3.27
2022-10-06T21:54:09.069Z,3.13
2022-10-06T21:56:36.594Z,3.70
2022-10-06T21:59:04.917Z,3.50
2022-10-06T22:01:32.459Z,3.27
2022-10-06T22:04:00.715Z,3.40
2022-10-06T22:06:29.038Z,2.90
2022-10-06T22:08:56.564Z,3.00
2022-10-06T22:11:24.089Z,3.33
2022-10-06T22:13:51.641Z,3.17
2022-10-06T22:16:19.215Z,2.90
2022-10-06T22:18:46.702Z,2.80
2022-10-06T22:21:17.248Z,3.40
2022-10-06T22:23:44.769Z,3.70
2022-10-06T22:26:13.048Z,3.03
2022-10-06T22:28:41.434Z,2.70
2022-10-06T22:31:08.932Z,2.60
2022-10-06T22:33:36.437Z,2.57
2022-10-06T22:36:04.750Z,2.67
2022-10-06T22:38:32.265Z,2.43
2022-10-06T22:41:02.764Z,2.50
2022-10-06T22:43:30.328Z,2.63
2022-10-06T22:45:57.842Z,2.50
2022-10-06T22:48:25.393Z,2.43
2022-10-06T22:50:53.691Z,3.00
2022-10-06T22:53:21.226Z,2.40
2022-10-06T22:55:48.741Z,2.77
2022-10-06T22:58:16.452Z,2.33
2022-10-06T23:00:44.037Z,3.20
2022-10-06T23:03:12.320Z,3.00
2022-10-06T23:05:40.583Z,2.47
2022-10-06T23:08:08.118Z,2.23
2022-10-06T23:10:35.634Z,2.10
2022-10-06T23:13:03.177Z,2.50
2022-10-06T23:15:30.731Z,1.90
2022-10-06T23:17:58.217Z,2.07
2022-10-06T23:20:25.781Z,1.93
2022-10-06T23:22:54.074Z,1.80
2022-10-06T23:25:27.031Z,2.00
2022-10-06T23:27:49.931Z,2.20
2022-10-06T23:30:17.446Z,2.03
2022-10-06T23:32:44.961Z,1.57
2022-10-06T23:35:12.528Z,2.03
2022-10-06T23:37:40.040Z,2.70
2022-10-06T23:40:08.501Z,2.47
2022-10-06T23:42:36.067Z,2.17
2022-10-06T23:45:04.397Z,2.60
2022-10-06T23:47:31.932Z,3.33
2022-10-06T23:49:59.476Z,4.33
2022-10-06T23:52:27.779Z,4.50
2022-10-06T23:54:55.305Z,4.47
2022-10-06T23:57:23.640Z,3.80
2022-10-06T23:59:51.171Z,4.13
